createdAt,value
2022-12-18T00:02:14.041Z,102835.53
2022-12-18T00:04:41.369Z,102887.66
2022-12-18T00:07:08.180Z,102893.59
2022-12-18T00:09:39.801Z,102909.81
2022-12-18T00:14:46.340Z,102906.41
2022-12-18T00:17:13.141Z,102885.91
2022-12-18T00:19:40.002Z,102902.13
2022-12-18T00:22:07.681Z,102898.72
2022-12-18T00:24:34.502Z,102898.75
2022-12-18T00:27:01.401Z,102897.00
2022-12-18T00:29:28.242Z,102894.47
2022-12-18T00:31:55.116Z,102909.81
2022-12-18T00:34:22.020Z,102918.34
2022-12-18T00:36:49.060Z,102883.34
2022-12-18T00:39:15.920Z,102907.22
2022-12-18T00:42:01.280Z,102879.88
2022-12-18T00:44:28.106Z,102913.16
2022-12-18T00:46:54.921Z,102929.38
2022-12-18T00:49:21.900Z,102925.13
2022-12-18T00:51:48.920Z,102920.84
2022-12-18T00:54:16.320Z,102926.81
2022-12-18T00:56:49.493Z,102922.53
2022-12-18T00:59:17.830Z,102920.81
2022-12-18T01:01:44.895Z,102928.50
2022-12-18T01:04:11.901Z,102919.94
2022-12-18T01:06:38.780Z,102935.31
2022-12-18T01:09:06.982Z,102937.00
2022-12-18T01:11:33.881Z,102915.72
2022-12-18T01:14:03.480Z,102934.47
2022-12-18T01:16:30.468Z,102943.00
2022-12-18T01:18:57.472Z,102951.50
2022-12-18T01:21:24.521Z,102956.63
2022-12-18T01:23:55.624Z,102952.38
2022-12-18T01:26:22.645Z,102936.19
2022-12-18T01:28:49.520Z,102956.63
2022-12-18T01:31:24.281Z,102945.56
2022-12-18T01:33:52.280Z,102949.81
2022-12-18T01:36:20.661Z,102955.75
2022-12-18T01:38:47.720Z,102950.63
2022-12-18T01:41:14.941Z,102953.22
2022-12-18T01:43:52.320Z,102958.34
2022-12-18T01:46:20.003Z,102949.78
2022-12-18T01:48:48.741Z,102937.84
2022-12-18T01:51:15.681Z,102951.53
2022-12-18T01:53:42.860Z,102950.66
2022-12-18T01:56:10.797Z,102935.28
2022-12-18T01:59:00.786Z,102948.97
2022-12-18T02:01:27.935Z,102954.13
2022-12-18T02:03:55.000Z,102958.41
2022-12-18T02:06:32.060Z,102953.34
2022-12-18T02:09:10.841Z,102953.38
2022-12-18T02:12:10.861Z,102956.84
2022-12-18T02:14:40.561Z,102965.38
2022-12-18T02:17:12.960Z,102961.16
2022-12-18T02:19:39.643Z,102960.31
2022-12-18T02:22:28.020Z,102956.94
2022-12-18T02:25:13.080Z,102966.34
2022-12-18T02:27:40.280Z,102923.66
2022-12-18T02:30:07.579Z,102965.53
2022-12-18T02:32:40.280Z,102970.66
2022-12-18T02:35:08.701Z,102967.25
2022-12-18T02:37:35.505Z,102968.97
2022-12-18T02:40:02.414Z,102983.47
2022-12-18T02:42:29.320Z,102964.72
2022-12-18T02:44:56.159Z,102960.41
2022-12-18T02:47:24.323Z,102984.34
2022-12-18T02:50:22.092Z,102983.50
2022-12-18T02:53:40.109Z,102987.75
2022-12-18T02:56:08.699Z,102976.66
2022-12-18T02:58:57.260Z,102983.50
2022-12-18T03:02:08.807Z,102993.75
2022-12-18T03:04:38.720Z,102988.63
2022-12-18T03:07:08.060Z,102979.22
2022-12-18T03:09:39.560Z,102994.59
2022-12-18T03:12:24.942Z,102969.81
2022-12-18T03:15:02.560Z,102986.94
2022-12-18T03:17:29.600Z,102967.25
2022-12-18T03:19:58.263Z,102986.91
2022-12-18T03:22:25.420Z,102985.19
2022-12-18T03:24:52.280Z,103003.16
2022-12-18T03:27:19.739Z,102997.16
2022-12-18T03:29:57.040Z,102998.88
2022-12-18T03:32:32.025Z,103004.03
2022-12-18T03:34:59.920Z,102998.03
2022-12-18T03:37:26.760Z,102996.28
2022-12-18T03:39:53.544Z,102976.66
2022-12-18T03:42:51.140Z,103015.97
2022-12-18T03:45:22.440Z,103016.81
2022-12-18T03:48:08.961Z,103027.94
2022-12-18T03:50:40.701Z,102999.72
2022-12-18T03:53:29.740Z,103028.78
2022-12-18T03:55:56.621Z,103019.34
2022-12-18T03:58:25.722Z,103036.44
2022-12-18T04:00:53.528Z,102975.78
2022-12-18T04:03:23.991Z,103040.72
2022-12-18T04:05:53.341Z,103047.53
2022-12-18T04:08:20.240Z,103053.50
2022-12-18T04:10:47.041Z,103028.72
2022-12-18T04:13:13.912Z,103045.81
2022-12-18T04:15:40.818Z,103038.97
2022-12-18T04:18:08.641Z,103054.34
2022-12-18T04:20:35.520Z,103054.34
2022-12-18T04:23:02.323Z,103058.59
2022-12-18T04:25:29.220Z,103055.16
2022-12-18T04:27:56.060Z,103054.28
2022-12-18T04:30:22.863Z,103053.41
2022-12-18T04:32:52.386Z,103053.44
2022-12-18T04:35:19.383Z,103061.09
2022-12-18T04:37:46.243Z,103067.91
2022-12-18T04:40:13.440Z,103062.75
2022-12-18T04:42:41.480Z,103069.56
2022-12-18T04:45:09.260Z,103074.69
2022-12-18T04:47:36.161Z,103054.94
2022-12-18T04:50:02.980Z,103077.22
2022-12-18T04:52:32.781Z,103083.19
2022-12-18T04:54:59.584Z,103074.59
2022-12-18T04:57:27.241Z,103076.28
2022-12-18T04:59:54.081Z,103089.97
2022-12-18T05:02:21.014Z,103083.97
2022-12-18T05:04:48.001Z,103065.97
2022-12-18T05:07:14.821Z,103061.72
2022-12-18T05:09:41.860Z,103086.47
2022-12-18T05:12:08.660Z,103075.34
2022-12-18T05:14:35.500Z,103096.72
2022-12-18T05:17:02.320Z,103104.38
2022-12-18T05:19:29.161Z,103077.84
2022-12-18T05:21:55.962Z,103105.22
2022-12-18T05:24:22.781Z,103105.19
2022-12-18T05:26:49.601Z,103113.72
2022-12-18T05:29:16.520Z,103117.09
2022-12-18T05:31:43.396Z,103123.94
2022-12-18T05:34:10.616Z,103120.50
2022-12-18T05:36:38.340Z,103111.09
2022-12-18T05:39:05.161Z,103121.38
2022-12-18T05:41:32.921Z,103127.34
2022-12-18T05:43:59.904Z,103104.22
2022-12-18T05:46:26.795Z,103117.84
2022-12-18T05:48:53.640Z,103139.28
2022-12-18T05:51:21.481Z,103129.00
2022-12-18T05:53:48.404Z,103149.50
2022-12-18T05:56:17.701Z,103140.09
2022-12-18T05:58:44.801Z,103136.66
2022-12-18T06:01:16.755Z,103137.53
2022-12-18T06:03:44.211Z,103149.47
2022-12-18T06:06:20.700Z,103157.19
2022-12-18T06:08:47.743Z,103160.56
2022-12-18T06:11:16.800Z,103160.56
2022-12-18T06:13:43.661Z,103166.53
2022-12-18T06:16:10.565Z,103134.88
2022-12-18T06:18:40.585Z,103161.38
2022-12-18T06:21:07.560Z,103175.06
2022-12-18T06:23:34.440Z,103156.19
2022-12-18T06:26:08.161Z,103169.91
2022-12-18T06:28:35.490Z,103168.19
2022-12-18T06:31:04.298Z,103152.72
2022-12-18T06:33:31.260Z,103166.41
2022-12-18T06:36:08.682Z,103172.34
2022-12-18T06:38:35.880Z,103181.75
2022-12-18T06:41:10.608Z,103188.63
2022-12-18T06:43:37.991Z,103206.53
2022-12-18T06:46:05.738Z,103208.22
2022-12-18T06:48:32.823Z,103211.66
2022-12-18T06:50:59.740Z,103195.38
2022-12-18T06:53:26.681Z,103208.22
2022-12-18T06:55:53.602Z,103192.75
2022-12-18T06:58:20.540Z,103214.19
2022-12-18T07:00:47.668Z,103207.25
2022-12-18T07:03:14.611Z,103215.84
2022-12-18T07:05:42.003Z,103222.66
2022-12-18T07:08:09.280Z,103229.53
2022-12-18T07:10:47.406Z,103222.66
2022-12-18T07:13:14.420Z,103238.88
2022-12-18T07:15:42.241Z,103179.69
2022-12-18T07:18:09.821Z,103252.44
2022-12-18T07:20:36.703Z,103253.28
2022-12-18T07:23:04.880Z,103255.81
2022-12-18T07:25:34.561Z,103248.94
2022-12-18T07:28:01.491Z,103252.38
2022-12-18T07:30:28.441Z,103249.81
2022-12-18T07:32:55.281Z,103260.88
2022-12-18T07:35:25.247Z,103258.31
2022-12-18T07:37:52.423Z,103259.16
2022-12-18T07:40:19.300Z,103265.09
2022-12-18T07:42:46.143Z,103270.19
2022-12-18T07:45:13.102Z,103273.66
2022-12-18T07:47:42.305Z,103271.06
2022-12-18T07:50:09.421Z,103272.72
2022-12-18T07:52:36.320Z,103278.72
2022-12-18T07:55:03.640Z,103288.13
2022-12-18T08:00:17.700Z,103281.38
2022-12-18T08:02:44.633Z,103271.16
2022-12-18T08:05:11.583Z,103265.13
2022-12-18T08:07:38.461Z,103272.06
2022-12-18T08:10:05.722Z,103272.03
2022-12-18T08:12:33.280Z,103283.25
2022-12-18T08:15:00.061Z,103290.13
2022-12-18T08:17:26.942Z,103295.31
2022-12-18T08:19:53.760Z,103290.16
2022-12-18T08:22:20.601Z,103300.53
2022-12-18T08:24:47.544Z,103264.59
2022-12-18T08:27:28.937Z,103292.09
2022-12-18T08:29:56.924Z,103299.88
2022-12-18T08:32:24.239Z,103290.47
2022-12-18T08:34:51.165Z,103305.06
2022-12-18T08:37:18.020Z,103294.81
2022-12-18T08:39:44.881Z,103302.50
2022-12-18T08:42:30.364Z,103292.28
2022-12-18T08:44:57.223Z,103284.53
2022-12-18T08:47:24.104Z,103245.09
2022-12-18T08:49:50.982Z,103298.25
2022-12-18T08:52:17.761Z,103301.63
2022-12-18T08:54:44.684Z,103297.38
2022-12-18T08:57:11.501Z,103287.03
2022-12-18T08:59:38.383Z,103302.50
2022-12-18T09:02:05.403Z,103296.50
2022-12-18T09:04:32.442Z,103294.78
2022-12-18T09:06:59.343Z,103280.16
2022-12-18T09:09:26.221Z,103312.72
2022-12-18T09:11:53.180Z,103311.88
2022-12-18T09:14:20.065Z,103304.97
2022-12-18T09:16:46.962Z,103289.53
2022-12-18T09:19:14.461Z,103310.19
2022-12-18T09:21:46.270Z,103304.25
2022-12-18T09:24:15.202Z,103300.84
2022-12-18T09:26:43.665Z,103311.97
2022-12-18T09:29:14.093Z,103322.19
2022-12-18T09:31:41.653Z,103323.91
2022-12-18T09:34:08.649Z,103330.75
2022-12-18T09:36:35.594Z,103328.25
2022-12-18T09:39:07.585Z,103325.66
2022-12-18T09:41:58.038Z,103318.91
2022-12-18T09:44:26.316Z,103291.47
2022-12-18T09:46:59.379Z,103328.34
2022-12-18T09:49:28.952Z,103320.69
2022-12-18T09:51:57.108Z,103330.13
2022-12-18T09:54:34.434Z,103332.72
2022-12-18T09:57:01.416Z,103324.19
2022-12-18T09:59:33.670Z,103331.91
2022-12-18T10:02:00.804Z,103320.84
2022-12-18T10:04:28.705Z,103331.16
2022-12-18T10:07:22.284Z,103324.31
2022-12-18T10:09:59.973Z,103308.06
2022-12-18T10:12:42.351Z,103297.84
2022-12-18T10:15:21.900Z,103310.72
2022-12-18T10:18:26.051Z,103318.53
2022-12-18T10:20:54.291Z,103328.81
2022-12-18T10:23:48.311Z,103333.16
2022-12-18T10:26:15.636Z,103326.34
2022-12-18T10:28:43.817Z,103343.50
2022-12-18T10:31:21.372Z,103327.28
2022-12-18T10:33:51.800Z,103335.00
2022-12-18T10:36:18.849Z,103332.44
2022-12-18T10:38:45.714Z,103299.06
2022-12-18T10:41:21.790Z,103331.56
2022-12-18T10:43:48.813Z,103322.16
2022-12-18T10:46:18.193Z,103311.91
2022-12-18T10:48:48.400Z,103335.84
2022-12-18T10:51:25.968Z,103340.13
2022-12-18T10:54:15.955Z,103329.84
2022-12-18T10:56:42.879Z,103329.88
2022-12-18T10:59:12.959Z,103312.75
2022-12-18T11:01:47.161Z,103323.88
2022-12-18T11:04:18.571Z,103299.91
2022-12-18T11:07:07.978Z,103337.56
2022-12-18T11:09:39.256Z,103332.44
2022-12-18T11:12:20.056Z,103324.72
2022-12-18T11:14:54.074Z,103294.75
2022-12-18T11:17:25.842Z,103330.72
2022-12-18T11:19:59.481Z,103341.00
2022-12-18T11:22:30.317Z,103347.00
2022-12-18T11:27:59.734Z,103339.28
2022-12-18T11:30:31.673Z,103349.56
2022-12-18T11:33:08.515Z,103338.44
2022-12-18T11:35:54.912Z,103338.44
2022-12-18T11:38:29.356Z,103324.72
2022-12-18T11:41:48.874Z,103342.72
2022-12-18T11:44:29.734Z,103356.41
2022-12-18T11:47:01.593Z,103348.69
2022-12-18T11:49:31.896Z,103341.88
2022-12-18T11:52:11.232Z,103371.81
2022-12-18T11:54:38.014Z,103381.25
2022-12-18T11:57:11.391Z,103381.25
2022-12-18T11:59:55.217Z,103388.13
2022-12-18T12:02:32.241Z,103382.97
2022-12-18T12:05:18.639Z,103377.81
2022-12-18T12:07:56.393Z,103367.56
2022-12-18T12:10:41.133Z,103382.13
2022-12-18T12:13:19.014Z,103377.81
2022-12-18T12:15:54.474Z,103376.13
2022-12-18T12:18:45.754Z,103382.94
2022-12-18T12:21:42.935Z,103386.41
2022-12-18T12:24:15.353Z,103374.41
2022-12-18T12:27:13.355Z,103376.97
2022-12-18T12:29:42.840Z,103378.69
2022-12-18T12:32:27.840Z,103376.97
2022-12-18T12:35:19.353Z,103373.56
2022-12-18T12:38:23.378Z,103371.84
2022-12-18T12:41:03.511Z,103376.09
2022-12-18T12:43:49.396Z,103375.25
2022-12-18T12:46:32.463Z,103370.94
2022-12-18T12:49:10.812Z,103352.13
2022-12-18T12:51:39.754Z,103359.81
2022-12-18T12:54:14.121Z,103376.94
2022-12-18T12:56:49.375Z,103370.06
2022-12-18T12:59:39.782Z,103372.66
2022-12-18T13:02:10.998Z,103362.34
2022-12-18T13:04:43.694Z,103372.59
2022-12-18T13:07:30.733Z,103368.34
2022-12-18T13:10:25.724Z,103382.88
2022-12-18T13:12:57.354Z,103386.28
2022-12-18T13:15:25.872Z,103385.44
2022-12-18T13:18:11.035Z,103384.56
2022-12-18T13:21:03.300Z,103369.16
2022-12-18T13:23:33.356Z,103381.97
2022-12-18T13:26:00.081Z,103380.25
2022-12-18T13:28:49.052Z,103388.81
2022-12-18T13:31:35.254Z,103380.22
2022-12-18T13:34:26.721Z,103386.22
2022-12-18T13:36:55.996Z,103380.22
2022-12-18T13:39:40.932Z,103389.59
2022-12-18T13:42:08.582Z,103387.03
2022-12-18T13:44:42.240Z,103390.44
2022-12-18T13:47:34.773Z,103395.53
2022-12-18T13:50:02.936Z,103395.50
2022-12-18T13:52:30.337Z,103356.84
2022-12-18T13:54:58.293Z,103398.00
2022-12-18T13:57:32.436Z,103382.56
2022-12-18T13:59:59.835Z,103379.94
2022-12-18T14:02:28.678Z,103391.06
2022-12-18T14:04:56.388Z,103393.59
2022-12-18T14:07:24.980Z,103382.41
2022-12-18T14:10:06.475Z,103367.78
2022-12-18T14:13:03.797Z,103372.97
2022-12-18T14:15:40.591Z,103386.63
2022-12-18T14:18:16.855Z,103395.97
2022-12-18T14:20:52.853Z,103390.81
2022-12-18T14:23:40.009Z,103400.16
2022-12-18T14:26:28.253Z,103404.38
2022-12-18T14:28:56.591Z,103389.81
2022-12-18T14:31:27.573Z,103391.53
2022-12-18T14:33:54.935Z,103371.69
2022-12-18T14:36:25.812Z,103388.97
2022-12-18T14:38:59.712Z,103380.34
2022-12-18T14:41:26.914Z,103381.94
2022-12-18T14:43:55.046Z,103384.47
2022-12-18T14:46:43.448Z,103395.53
2022-12-18T14:49:35.372Z,103400.59
2022-12-18T14:52:04.369Z,103395.44
2022-12-18T14:54:31.416Z,103395.31
2022-12-18T14:57:04.163Z,103408.13
2022-12-18T14:59:31.073Z,103408.00
2022-12-18T15:02:21.568Z,103418.28
2022-12-18T15:04:48.548Z,103424.22
2022-12-18T15:07:18.472Z,103433.53
2022-12-18T15:10:04.497Z,103439.47
2022-12-18T15:12:44.375Z,103440.25
2022-12-18T15:15:39.087Z,103447.97
2022-12-18T15:18:08.713Z,103438.56
2022-12-18T15:20:55.917Z,103442.78
2022-12-18T15:23:24.614Z,103428.19
2022-12-18T15:26:11.573Z,103432.47
2022-12-18T15:28:44.815Z,103402.28
2022-12-18T15:31:14.747Z,103438.31
2022-12-18T15:33:47.146Z,103434.81
2022-12-18T15:36:15.286Z,103442.41
2022-12-18T15:38:47.210Z,103443.25
2022-12-18T15:41:24.485Z,103439.78
2022-12-18T15:43:52.729Z,103443.16
2022-12-18T15:46:23.925Z,103452.50
2022-12-18T15:48:55.498Z,103443.03
2022-12-18T15:51:34.015Z,103444.78
2022-12-18T15:54:02.007Z,103440.38
2022-12-18T15:56:47.321Z,103439.47
2022-12-18T15:59:18.767Z,103454.91
2022-12-18T16:01:49.798Z,103421.44
2022-12-18T16:04:18.146Z,103436.91
2022-12-18T16:07:13.419Z,103427.31
2022-12-18T16:09:31.672Z,103421.16
2022-12-18T16:12:01.228Z,103409.00
2022-12-18T16:14:32.149Z,103424.44
2022-12-18T16:17:00.780Z,103409.72
2022-12-18T16:19:28.733Z,103439.72
2022-12-18T16:21:56.509Z,103431.94
2022-12-18T16:24:27.769Z,103425.88
2022-12-18T16:26:54.892Z,103430.06
2022-12-18T16:29:28.078Z,103432.56
2022-12-18T16:31:55.865Z,103439.56
2022-12-18T16:34:28.749Z,103432.81
2022-12-18T16:37:01.708Z,103436.31
2022-12-18T16:39:33.065Z,103435.47
2022-12-18T16:42:00.049Z,103430.44
2022-12-18T16:44:28.825Z,103430.53
2022-12-18T16:46:55.757Z,103424.50
2022-12-18T16:49:22.669Z,103433.16
2022-12-18T16:51:49.461Z,103387.75
2022-12-18T16:54:19.002Z,103418.75
2022-12-18T16:56:49.873Z,103415.41
2022-12-18T16:59:16.685Z,103397.47
2022-12-18T17:01:44.855Z,103388.00
2022-12-18T17:04:12.006Z,103387.22
2022-12-18T17:06:43.307Z,103392.47
2022-12-18T17:09:13.185Z,103401.78
2022-12-18T17:11:39.944Z,103400.03
2022-12-18T17:14:12.632Z,103410.16
2022-12-18T17:16:40.119Z,103418.66
2022-12-18T17:19:12.103Z,103416.00
2022-12-18T17:21:42.050Z,103404.72
2022-12-18T17:24:09.013Z,103415.66
2022-12-18T17:26:35.785Z,103416.34
2022-12-18T17:29:02.588Z,103404.13
2022-12-18T17:31:30.001Z,103418.66
2022-12-18T17:33:57.488Z,103402.25
2022-12-18T17:36:24.762Z,103403.81
2022-12-18T17:38:52.764Z,103399.31
2022-12-18T17:41:19.644Z,103400.03
2022-12-18T17:43:55.106Z,103428.91
2022-12-18T17:46:22.084Z,103419.16
2022-12-18T17:48:48.866Z,103424.25
2022-12-18T17:51:15.923Z,103429.28
2022-12-18T17:53:43.171Z,103423.19
2022-12-18T17:56:13.937Z,103423.91
2022-12-18T17:58:41.938Z,103405.69
2022-12-18T18:01:09.043Z,103422.69
2022-12-18T18:03:38.351Z,103421.06
2022-12-18T18:06:06.133Z,103426.91
2022-12-18T18:08:33.888Z,103426.00
2022-12-18T18:11:26.306Z,103414.81
2022-12-18T18:14:05.542Z,103425.91
2022-12-18T18:16:40.574Z,103400.06
2022-12-18T18:19:09.122Z,103415.56
2022-12-18T18:21:41.153Z,103433.66
2022-12-18T18:24:08.773Z,103432.09
2022-12-18T18:26:35.847Z,103433.97
2022-12-18T18:29:03.314Z,103433.41
2022-12-18T18:31:32.652Z,103428.25
2022-12-18T18:34:01.244Z,103440.34
2022-12-18T18:36:28.124Z,103436.31
2022-12-18T18:38:59.386Z,103445.03
2022-12-18T18:41:26.301Z,103436.59
2022-12-18T18:43:57.024Z,103448.63
2022-12-18T18:46:24.064Z,103446.19
2022-12-18T18:48:50.888Z,103429.91
2022-12-18T18:51:21.190Z,103429.25
2022-12-18T18:53:49.762Z,103415.53
2022-12-18T18:56:56.349Z,103431.03
2022-12-18T18:59:04.764Z,103426.78
2022-12-18T19:01:31.683Z,103430.94
2022-12-18T19:03:58.524Z,103440.38
2022-12-18T19:06:27.324Z,103423.91
2022-12-18T19:08:55.426Z,103449.59
2022-12-18T19:11:41.828Z,103462.38
2022-12-18T19:14:09.388Z,103451.25
2022-12-18T19:16:36.320Z,103442.47
2022-12-18T19:19:03.283Z,103454.38
2022-12-18T19:21:34.226Z,103465.44
2022-12-18T19:24:02.698Z,103460.25
2022-12-18T19:26:29.986Z,103460.19
2022-12-18T19:29:04.655Z,103448.84
2022-12-18T19:31:35.912Z,103455.63
2022-12-18T19:34:07.255Z,103434.91
2022-12-18T19:36:35.364Z,103463.94
2022-12-18T19:39:02.427Z,103464.69
2022-12-18T19:41:31.415Z,103446.50
2022-12-18T19:43:59.861Z,103443.72
2022-12-18T19:46:27.781Z,103467.63
2022-12-18T19:48:54.669Z,103457.25
2022-12-18T19:51:23.622Z,103459.81
2022-12-18T19:53:55.122Z,103458.81
2022-12-18T19:56:26.875Z,103458.66
2022-12-18T19:58:54.110Z,103453.25
2022-12-18T20:01:21.836Z,103462.50
2022-12-18T20:03:52.740Z,103472.66
2022-12-18T20:06:34.827Z,103473.41
2022-12-18T20:09:05.805Z,103443.19
2022-12-18T20:11:33.165Z,103453.47
2022-12-18T20:14:02.247Z,103455.22
2022-12-18T20:16:29.284Z,103449.22
2022-12-18T20:18:57.174Z,103442.41
2022-12-18T20:21:25.373Z,103446.69
2022-12-18T20:23:52.464Z,103435.50
2022-12-18T20:26:19.464Z,103446.75
2022-12-18T20:28:46.326Z,103445.09
2022-12-18T20:31:14.188Z,103440.03
2022-12-18T20:33:42.250Z,103407.19
2022-12-18T20:36:15.166Z,103435.56
2022-12-18T20:38:42.327Z,103452.94
2022-12-18T20:41:17.924Z,103452.16
2022-12-18T20:43:45.532Z,103454.78
2022-12-18T20:46:13.634Z,103459.91
2022-12-18T20:48:40.570Z,103458.34
2022-12-18T20:51:09.043Z,103460.03
2022-12-18T20:53:36.112Z,103456.78
2022-12-18T20:56:11.809Z,103455.03
2022-12-18T20:58:38.748Z,103461.13
2022-12-18T21:01:12.463Z,103453.53
2022-12-18T21:03:40.239Z,103451.56
2022-12-18T21:06:07.414Z,103462.06
2022-12-18T21:08:34.342Z,103469.84
2022-12-18T21:11:38.126Z,103475.09
2022-12-18T21:14:25.892Z,103472.59
2022-12-18T21:16:56.077Z,103469.19
2022-12-18T21:19:25.229Z,103471.81
2022-12-18T21:21:52.925Z,103448.56
2022-12-18T21:24:19.807Z,103476.88
2022-12-18T21:26:47.228Z,103471.63
2022-12-18T21:29:27.024Z,103485.31
2022-12-18T21:31:54.813Z,103482.75
2022-12-18T21:34:23.647Z,103469.75
2022-12-18T21:36:50.422Z,103491.25
2022-12-18T21:39:17.494Z,103486.78
2022-12-18T21:42:03.538Z,103497.81
2022-12-18T21:44:30.628Z,103499.50
2022-12-18T21:47:12.269Z,103492.69
2022-12-18T21:49:49.385Z,103496.88
2022-12-18T21:52:16.938Z,103497.69
2022-12-18T21:54:43.730Z,103500.94
2022-12-18T21:57:11.025Z,103510.28
2022-12-18T21:59:39.006Z,103499.16
2022-12-18T22:02:15.181Z,103496.59
2022-12-18T22:04:42.739Z,103476.84
2022-12-18T22:07:10.515Z,103482.00
2022-12-18T22:09:38.104Z,103470.91
2022-12-18T22:12:04.982Z,103494.09
2022-12-18T22:14:31.975Z,103479.63
2022-12-18T22:16:58.846Z,103487.28
2022-12-18T22:19:26.674Z,103476.06
2022-12-18T22:21:54.007Z,103477.84
2022-12-18T22:24:22.513Z,103482.09
2022-12-18T22:26:49.931Z,103472.56
2022-12-18T22:29:36.486Z,103476.19
2022-12-18T22:32:04.364Z,103461.56
2022-12-18T22:34:36.345Z,103475.16
2022-12-18T22:37:03.593Z,103481.94
2022-12-18T22:39:30.536Z,103484.44
2022-12-18T22:41:57.865Z,103467.09
2022-12-18T22:44:27.609Z,103472.22
2022-12-18T22:47:06.895Z,103467.84
2022-12-18T22:49:35.053Z,103457.50
2022-12-18T22:52:05.883Z,103472.03
2022-12-18T22:54:32.664Z,103460.06
2022-12-18T22:56:59.445Z,103452.31
2022-12-18T22:59:26.684Z,103430.81
2022-12-18T23:01:58.603Z,103429.00
2022-12-18T23:04:36.277Z,103441.81
2022-12-18T23:07:05.130Z,103425.38
2022-12-18T23:09:32.204Z,103438.31
2022-12-18T23:11:59.131Z,103434.94
2022-12-18T23:14:25.970Z,103429.66
2022-12-18T23:16:53.198Z,103427.97
2022-12-18T23:19:20.583Z,103428.91
2022-12-18T23:21:47.450Z,103428.06
2022-12-18T23:24:14.487Z,103424.72
2022-12-18T23:26:41.387Z,103416.34
2022-12-18T23:29:08.225Z,103397.41
2022-12-18T23:31:36.617Z,103425.00
2022-12-18T23:34:03.684Z,103400.22
2022-12-18T23:36:30.525Z,103377.06
2022-12-18T23:39:00.813Z,103423.66
2022-12-18T23:41:30.191Z,103410.09
2022-12-18T23:43:57.724Z,103412.00
2022-12-18T23:46:29.481Z,103417.44
2022-12-18T23:48:57.807Z,103396.31
2022-12-18T23:51:25.750Z,103388.00
2022-12-18T23:53:56.924Z,103391.75
2022-12-18T23:56:23.889Z,103393.66
2022-12-18T23:58:52.074Z,103388.66
